Time;durP1;ratioP1;P1;durP2;ratioP2;P2;SDS_P1;SDS_P2;PMS_P1;PMS_P2;Temp;Humidity;BMP_temperature;BMP_pressure;BME280_temperature;BME280_humidity;BME280_pressure;Samples;Min_cycle;Max_cycle;Signal;HPM_P1;HPM_P2
2023/11/06 00:01:38;;;;;;;4.50;1.97;;;;;;;10.32;86.80;98453.56;5015079;28;20207;-82
2023/11/06 00:04:05;;;;;;;3.03;1.40;;;;;;;10.30;87.01;98452.88;5022714;28;20218;-83
2023/11/06 00:06:33;;;;;;;3.77;1.73;;;;;;;10.34;86.74;98472.88;5022282;28;20214;-82
2023/11/06 00:08:59;;;;;;;5.13;1.43;;;;;;;10.34;86.94;98464.06;5014139;28;20226;-83
2023/11/06 00:11:26;;;;;;;3.27;1.43;;;;;;;10.35;87.06;98468.41;5022424;28;20200;-83
2023/11/06 00:13:52;;;;;;;3.97;1.20;;;;;;;10.35;86.97;98471.06;5018048;28;20233;-82
2023/11/06 00:16:19;;;;;;;4.57;1.60;;;;;;;10.36;86.75;98476.25;5015610;28;20198;-82
2023/11/06 00:18:47;;;;;;;3.43;1.93;;;;;;;10.37;87.04;98471.75;5019734;28;20239;-82
2023/11/06 00:21:13;;;;;;;4.03;1.70;;;;;;;10.39;86.71;98475.09;5032149;28;20202;-82
2023/11/06 00:23:41;;;;;;;3.20;1.60;;;;;;;10.40;86.46;98482.06;5029965;28;20200;-82
2023/11/06 00:26:13;;;;;;;4.27;1.50;;;;;;;10.43;86.43;98479.13;5033562;28;20211;-82
2023/11/06 00:28:40;;;;;;;2.87;1.33;;;;;;;10.40;86.52;98495.38;5030714;28;20231;-82
2023/11/06 00:31:07;;;;;;;3.87;1.40;;;;;;;10.37;86.91;98485.06;5027945;28;20201;-82
2023/11/06 00:33:33;;;;;;;3.40;1.50;;;;;;;10.38;87.00;98486.72;5033658;28;20785;-82
2023/11/06 00:36:00;;;;;;;6.60;2.23;;;;;;;10.37;86.57;98490.38;5028261;28;20222;-82
2023/11/06 00:38:26;;;;;;;3.53;1.67;;;;;;;10.31;86.17;98502.44;5031239;28;20295;-82
2023/11/06 00:40:54;;;;;;;4.80;1.00;;;;;;;10.30;86.09;98498.09;5026508;28;20528;-82
2023/11/06 00:43:21;;;;;;;3.27;1.30;;;;;;;10.30;86.09;98499.94;5023233;28;20196;-81
2023/11/06 00:45:48;;;;;;;3.53;1.33;;;;;;;10.28;86.43;98507.22;5026794;28;20257;-81
2023/11/06 00:48:18;;;;;;;5.23;1.30;;;;;;;10.26;86.46;98509.19;5028179;28;20445;-83
2023/11/06 00:50:49;;;;;;;5.97;1.57;;;;;;;10.21;86.73;98514.94;5030856;28;20207;-82
2023/11/06 00:53:17;;;;;;;3.97;2.37;;;;;;;10.20;87.18;98515.94;5031677;28;20227;-83
2023/11/06 00:56:03;;;;;;;5.57;1.60;;;;;;;10.19;87.48;98519.59;5032067;28;20203;-83
2023/11/06 00:58:33;;;;;;;2.63;1.20;;;;;;;10.14;87.85;98531.59;5015080;28;20227;-83
2023/11/06 01:00:59;;;;;;;3.63;1.30;;;;;;;10.12;87.80;98530.91;5030469;28;20195;-82
2023/11/06 01:03:26;;;;;;;4.47;1.30;;;;;;;10.11;87.86;98548.69;5029215;28;20207;-82
2023/11/06 01:05:52;;;;;;;6.93;1.10;;;;;;;10.06;87.52;98541.13;5025426;28;20213;-82
2023/11/06 01:08:19;;;;;;;3.50;1.17;;;;;;;10.08;87.80;98543.66;5025821;28;20215;-82
2023/11/06 01:10:46;;;;;;;4.47;1.23;;;;;;;10.08;88.22;98554.28;5029580;28;20214;-82
2023/11/06 01:13:13;;;;;;;4.67;1.10;;;;;;;10.07;88.48;98553.47;5029820;28;20202;-82
2023/11/06 01:15:42;;;;;;;3.13;0.93;;;;;;;10.04;88.79;98551.09;5029443;28;20215;-82
2023/11/06 01:18:09;;;;;;;4.20;1.17;;;;;;;10.02;88.65;98560.22;5030522;28;20235;-82
2023/11/06 01:20:35;;;;;;;2.20;1.10;;;;;;;10.04;88.35;98569.69;5031888;28;20203;-83
2023/11/06 01:23:02;;;;;;;2.63;1.20;;;;;;;10.04;88.55;98567.03;5032286;28;20195;-82
2023/11/06 01:25:29;;;;;;;3.10;1.43;;;;;;;10.04;88.25;98580.34;5031524;28;20215;-82
2023/11/06 01:27:56;;;;;;;1.73;1.10;;;;;;;10.04;88.45;98575.03;5027681;28;20234;-83
2023/11/06 01:30:23;;;;;;;3.43;1.27;;;;;;;10.05;88.73;98573.19;5028037;28;20309;-83
2023/11/06 01:32:51;;;;;;;3.93;1.17;;;;;;;10.07;88.75;98574.75;5016706;28;20196;-83
2023/11/06 01:35:19;;;;;;;2.53;1.00;;;;;;;10.09;88.72;98585.22;5027623;28;20287;-83
2023/11/06 01:37:46;;;;;;;2.50;1.10;;;;;;;10.07;88.88;98592.50;5029656;28;20285;-84
2023/11/06 01:40:13;;;;;;;3.93;1.30;;;;;;;10.09;89.53;98590.56;5030960;28;20241;-84
2023/11/06 01:42:40;;;;;;;3.17;1.20;;;;;;;10.13;89.29;98591.94;5033331;28;20212;-83
2023/11/06 01:45:08;;;;;;;2.77;1.40;;;;;;;10.14;89.44;98600.78;5028479;28;20194;-84
2023/11/06 01:47:36;;;;;;;2.70;1.27;;;;;;;10.15;89.39;98592.66;5029010;28;20234;-83
2023/11/06 01:50:05;;;;;;;3.43;1.63;;;;;;;10.16;89.08;98596.16;5025304;28;20227;-83
2023/11/06 01:52:33;;;;;;;3.07;1.60;;;;;;;10.18;89.63;98594.19;5031142;28;20199;-83
2023/11/06 01:55:00;;;;;;;2.67;1.60;;;;;;;10.21;89.26;98594.75;5028113;28;20197;-83
2023/11/06 01:57:27;;;;;;;6.57;1.53;;;;;;;10.22;89.37;98608.88;5031195;28;20202;-84
2023/11/06 01:59:55;;;;;;;4.17;1.80;;;;;;;10.22;88.67;98592.91;5030842;28;20207;-83
2023/11/06 02:02:23;;;;;;;6.83;1.73;;;;;;;10.21;88.90;98591.28;5035622;28;20263;-83
2023/11/06 02:04:51;;;;;;;2.87;1.40;;;;;;;10.21;88.84;98596.59;5031046;28;20258;-83
2023/11/06 02:07:19;;;;;;;5.67;1.60;;;;;;;10.19;88.71;98598.56;5031108;28;20182;-83
2023/11/06 02:09:46;;;;;;;3.57;1.40;;;;;;;10.19;88.99;98587.91;5026116;28;20326;-83
2023/11/06 02:12:13;;;;;;;2.97;1.20;;;;;;;10.19;88.65;98595.91;5028750;28;20274;-83
2023/11/06 02:14:49;;;;;;;4.97;1.73;;;;;;;10.20;87.98;98598.41;5031250;28;20210;-83
2023/11/06 02:17:16;;;;;;;3.47;1.17;;;;;;;10.20;87.64;98621.50;5031432;28;20198;-83
2023/11/06 02:19:42;;;;;;;3.67;1.60;;;;;;;10.20;87.66;98608.22;5031947;28;20215;-83
2023/11/06 02:22:11;;;;;;;4.00;1.53;;;;;;;10.20;87.37;98621.50;5030872;28;20232;-83
2023/11/06 02:24:39;;;;;;;5.07;1.43;;;;;;;10.20;87.75;98624.19;5031574;28;20206;-83
2023/11/06 02:27:08;;;;;;;3.47;1.10;;;;;;;10.25;87.37;98620.06;5036108;28;20186;-82
2023/11/06 02:29:34;;;;;;;3.43;1.30;;;;;;;10.26;87.54;98632.41;5031211;28;20214;-83
2023/11/06 02:32:01;;;;;;;2.30;1.10;;;;;;;10.28;87.59;98634.91;5031667;28;20283;-83
2023/11/06 02:34:27;;;;;;;7.60;1.73;;;;;;;10.26;88.06;98640.38;5027653;28;20216;-83
2023/11/06 02:36:54;;;;;;;4.47;1.40;;;;;;;10.29;88.22;98642.75;5031977;28;20208;-83
2023/11/06 02:39:21;;;;;;;2.23;0.97;;;;;;;10.34;88.38;98648.50;5033580;28;20212;-84
2023/11/06 02:41:49;;;;;;;2.93;1.10;;;;;;;10.37;88.27;98656.19;5032233;28;20229;-83
2023/11/06 02:44:16;;;;;;;11.97;1.90;;;;;;;10.37;88.03;98653.53;5034143;28;20203;-84
2023/11/06 02:46:42;;;;;;;2.83;1.03;;;;;;;10.33;88.17;98661.94;5029393;28;20245;-83
2023/11/06 02:49:09;;;;;;;3.57;1.07;;;;;;;10.32;87.94;98674.41;5032288;28;20293;-83
2023/11/06 02:51:35;;;;;;;4.13;1.17;;;;;;;10.31;88.23;98661.25;5034173;28;20219;-83
2023/11/06 02:54:03;;;;;;;3.57;1.30;;;;;;;10.31;87.85;98677.19;5031078;28;20259;-83
2023/11/06 02:56:34;;;;;;;2.37;1.10;;;;;;;10.33;87.34;98675.25;5035995;28;20227;-83
2023/11/06 02:59:03;;;;;;;1.67;1.20;;;;;;;10.33;86.13;98680.56;5031497;28;20220;-83
2023/11/06 03:01:29;;;;;;;3.33;1.10;;;;;;;10.31;85.36;98675.38;5030831;28;20274;-83
2023/11/06 03:03:58;;;;;;;10.10;2.40;;;;;;;10.32;84.76;98676.22;5029786;28;20295;-84
2023/11/06 03:06:27;;;;;;;2.30;1.47;;;;;;;10.32;84.89;98677.06;5024207;28;20206;-84
2023/11/06 03:08:54;;;;;;;3.47;1.60;;;;;;;10.34;84.80;98693.72;5033920;28;20232;-83
2023/11/06 03:11:20;;;;;;;2.40;1.10;;;;;;;10.39;85.19;98699.44;5036155;28;20202;-83
2023/11/06 03:13:47;;;;;;;3.97;1.30;;;;;;;10.37;84.57;98692.59;5031620;28;20197;-83
2023/11/06 03:16:16;;;;;;;3.97;1.50;;;;;;;10.36;84.71;98701.56;5029678;28;20204;-83
2023/11/06 03:18:42;;;;;;;6.70;1.60;;;;;;;10.36;85.26;98699.75;5030628;28;20257;-83
2023/11/06 03:21:09;;;;;;;3.67;1.47;;;;;;;10.36;85.58;98702.41;5029041;28;20199;-83
2023/11/06 03:23:35;;;;;;;3.60;1.20;;;;;;;10.35;85.78;98715.84;5029751;28;20202;-83
2023/11/06 03:26:02;;;;;;;3.43;1.40;;;;;;;10.34;86.16;98720.34;5034082;28;20211;-83
2023/11/06 03:28:29;;;;;;;4.77;1.10;;;;;;;10.32;86.50;98724.13;5041279;28;20245;-83
2023/11/06 03:30:56;;;;;;;5.13;1.93;;;;;;;10.30;86.45;98734.06;5034042;28;20290;-83
2023/11/06 03:33:24;;;;;;;3.90;1.13;;;;;;;10.28;87.18;98726.22;5030420;28;20199;-83
2023/11/06 03:35:51;;;;;;;2.63;1.03;;;;;;;10.28;87.26;98733.34;5029780;28;20226;-83
2023/11/06 03:38:18;;;;;;;2.37;0.90;;;;;;;10.24;87.66;98735.47;5032276;28;20194;-83
2023/11/06 03:40:45;;;;;;;4.23;1.00;;;;;;;10.32;87.40;98740.91;5029799;28;20206;-83
2023/11/06 03:43:12;;;;;;;3.83;0.90;;;;;;;10.30;87.62;98739.38;5028987;28;20282;-83
2023/11/06 03:45:38;;;;;;;3.00;1.30;;;;;;;10.28;87.95;98747.50;5029578;28;20203;-83
2023/11/06 03:48:05;;;;;;;3.70;0.97;;;;;;;10.33;87.86;98749.75;5022265;28;20237;-83
2023/11/06 03:50:33;;;;;;;1.67;1.00;;;;;;;10.37;87.66;98756.47;5030268;28;20230;-83
2023/11/06 03:53:00;;;;;;;1.80;0.90;;;;;;;10.35;87.88;98761.94;5033127;28;20220;-82
2023/11/06 03:55:26;;;;;;;3.23;1.20;;;;;;;10.36;88.22;98754.78;5029860;28;20203;-83
2023/11/06 03:57:53;;;;;;;2.30;0.90;;;;;;;10.34;88.73;98760.25;5023316;28;20355;-83
2023/11/06 04:00:20;;;;;;;3.20;1.20;;;;;;;10.32;89.21;98764.88;5025859;28;20751;-82
2023/11/06 04:02:47;;;;;;;2.37;1.23;;;;;;;10.30;89.67;98761.50;5035790;28;20191;-83
2023/11/06 04:05:14;;;;;;;3.67;1.57;;;;;;;10.30;89.87;98761.50;5028484;28;20209;-83
2023/11/06 04:07:42;;;;;;;1.93;1.27;;;;;;;10.35;89.35;98772.56;5033006;28;20187;-82
2023/11/06 04:10:10;;;;;;;2.70;0.90;;;;;;;10.36;89.63;98776.91;5032157;28;20363;-83
2023/11/06 04:12:37;;;;;;;3.27;1.23;;;;;;;10.38;89.90;98776.78;5032276;28;20218;-83
2023/11/06 04:15:05;;;;;;;2.63;0.70;;;;;;;10.34;89.85;98780.69;5031607;28;20203;-82
2023/11/06 04:17:32;;;;;;;2.70;1.10;;;;;;;10.37;89.06;98791.91;5023989;28;20212;-82
2023/11/06 04:19:59;;;;;;;2.93;0.63;;;;;;;10.39;89.22;98791.75;5029648;28;20331;-83
2023/11/06 04:22:25;;;;;;;4.40;0.90;;;;;;;10.34;89.23;98799.31;5024014;28;20239;-82
2023/11/06 04:24:54;;;;;;;3.60;1.00;;;;;;;10.35;89.99;98796.53;5026558;28;20305;-83
2023/11/06 04:27:21;;;;;;;3.23;1.30;;;;;;;10.36;89.89;98795.53;5025537;28;20195;-83
2023/11/06 04:29:47;;;;;;;2.73;1.17;;;;;;;10.40;90.03;98804.06;5029044;28;20215;-82
2023/11/06 04:32:14;;;;;;;2.97;1.07;;;;;;;10.39;90.78;98803.22;5028619;28;20214;-82
2023/11/06 04:34:41;;;;;;;2.70;1.07;;;;;;;10.37;91.38;98810.53;5029454;28;20366;-82
2023/11/06 04:37:12;;;;;;;3.60;0.90;;;;;;;10.37;92.32;98812.34;5031046;28;20191;-82
2023/11/06 04:39:39;;;;;;;4.20;1.10;;;;;;;10.35;92.77;98811.66;5026109;28;20218;-82
2023/11/06 04:42:08;;;;;;;3.00;1.00;;;;;;;10.31;93.80;98810.25;5029873;28;20211;-82
2023/11/06 04:44:35;;;;;;;3.33;1.23;;;;;;;10.30;93.94;98819.19;5030859;28;20198;-82
2023/11/06 04:47:01;;;;;;;3.67;1.00;;;;;;;10.28;94.31;98813.19;5022646;28;20271;-82
2023/11/06 04:49:28;;;;;;;2.03;0.90;;;;;;;10.28;94.14;98816.69;5029007;28;20324;-82
2023/11/06 04:51:54;;;;;;;4.17;1.10;;;;;;;10.25;94.20;98821.44;5029734;28;20268;-82
2023/11/06 04:54:21;;;;;;;1.77;0.97;;;;;;;10.22;94.01;98816.38;5028359;28;20647;-82
2023/11/06 04:56:48;;;;;;;1.53;0.90;;;;;;;10.17;93.73;98829.25;5027399;28;20200;-82
2023/11/06 04:59:16;;;;;;;3.47;1.20;;;;;;;10.14;93.75;98834.84;5026759;28;20242;-83
2023/11/06 05:01:43;;;;;;;4.13;1.10;;;;;;;10.13;93.83;98833.16;5027587;28;20195;-83
2023/11/06 05:04:09;;;;;;;2.33;1.07;;;;;;;10.10;93.33;98837.78;5025764;28;20257;-83
2023/11/06 05:06:36;;;;;;;3.60;1.33;;;;;;;10.08;93.68;98841.53;5030110;28;20207;-82
2023/11/06 05:09:04;;;;;;;2.97;1.00;;;;;;;10.10;94.58;98842.25;5031205;28;20288;-83
2023/11/06 05:11:31;;;;;;;4.83;1.90;;;;;;;10.11;94.33;98849.25;5031706;28;20191;-83
2023/11/06 05:13:58;;;;;;;2.97;1.23;;;;;;;10.09;93.68;98849.38;5029632;28;20205;-83
2023/11/06 05:16:27;;;;;;;4.13;1.37;;;;;;;10.08;93.89;98855.69;5030727;28;20211;-82
2023/11/06 05:18:54;;;;;;;2.70;1.27;;;;;;;10.09;93.31;98856.53;5037165;28;20258;-83
2023/11/06 05:21:25;;;;;;;3.67;1.80;;;;;;;10.09;93.22;98861.84;5029024;28;20192;-82
2023/11/06 05:23:51;;;;;;;2.23;1.40;;;;;;;10.10;93.23;98866.19;5026360;28;20212;-82
2023/11/06 05:26:18;;;;;;;3.90;1.60;;;;;;;10.08;93.06;98858.34;5031315;28;20191;-82
2023/11/06 05:28:45;;;;;;;4.70;1.83;;;;;;;10.09;92.79;98862.69;5033450;28;20253;-83
2023/11/06 05:31:11;;;;;;;2.03;1.30;;;;;;;10.07;92.80;98867.31;5032607;28;20191;-82
2023/11/06 05:33:40;;;;;;;3.73;1.33;;;;;;;10.10;92.65;98879.50;5034948;28;20275;-83
2023/11/06 05:36:09;;;;;;;2.63;1.33;;;;;;;10.12;92.66;98890.00;5026281;28;20216;-83
2023/11/06 05:38:36;;;;;;;5.50;2.20;;;;;;;10.08;92.30;98886.75;5018690;28;20231;-83
2023/11/06 05:41:02;;;;;;;2.47;1.70;;;;;;;10.07;92.45;98893.06;5028437;28;20207;-82
2023/11/06 05:43:29;;;;;;;2.87;1.70;;;;;;;10.08;92.55;98905.38;5022673;28;20211;-82
2023/11/06 05:45:56;;;;;;;3.63;1.40;;;;;;;10.08;92.68;98908.03;5026166;28;20207;-82
2023/11/06 05:48:23;;;;;;;2.47;1.40;;;;;;;10.09;92.56;98907.06;5010957;28;20203;-82
2023/11/06 05:50:51;;;;;;;4.90;1.87;;;;;;;10.09;92.32;98912.38;5025945;28;20291;-82
2023/11/06 05:53:17;;;;;;;2.10;1.40;;;;;;;10.11;92.18;98915.75;5024169;28;20195;-83
2023/11/06 05:55:47;;;;;;;4.37;1.80;;;;;;;10.12;91.52;98916.59;5025820;28;20253;-83
2023/11/06 05:58:14;;;;;;;3.43;1.60;;;;;;;10.11;91.59;98926.41;5026644;28;20244;-83
2023/11/06 06:00:41;;;;;;;5.23;1.80;;;;;;;10.10;91.57;98924.72;5025204;28;20212;-83
2023/11/06 06:03:07;;;;;;;4.90;1.77;;;;;;;10.11;91.42;98937.03;5032906;28;20215;-82
2023/11/06 06:05:34;;;;;;;2.57;1.67;;;;;;;10.13;91.35;98937.75;5036762;28;20260;-83
2023/11/06 06:08:02;;;;;;;5.33;2.00;;;;;;;10.16;91.19;98931.31;5033752;28;20227;-82
2023/11/06 06:10:29;;;;;;;2.63;2.07;;;;;;;10.14;91.13;98946.56;5028341;28;20699;-82
2023/11/06 06:12:55;;;;;;;2.30;1.70;;;;;;;10.15;89.94;98949.09;5033239;28;20271;-82
2023/11/06 06:15:22;;;;;;;4.40;2.67;;;;;;;10.12;89.95;98941.38;5030061;28;20195;-82
2023/11/06 06:17:49;;;;;;;4.57;1.93;;;;;;;10.12;90.08;98949.34;5026571;28;20221;-83
2023/11/06 06:20:16;;;;;;;10.00;2.40;;;;;;;10.12;90.06;98957.34;5030044;28;20223;-83
2023/11/06 06:22:42;;;;;;;7.27;3.27;;;;;;;10.16;89.88;98956.09;5030847;28;20221;-83
2023/11/06 06:25:12;;;;;;;4.47;2.13;;;;;;;10.14;90.16;98957.22;5031100;28;20314;-83
2023/11/06 06:27:38;;;;;;;3.83;2.00;;;;;;;10.15;90.72;98967.72;5033240;28;20188;-82
2023/11/06 06:30:06;;;;;;;5.87;2.60;;;;;;;10.15;90.65;98969.53;5032496;28;20600;-83
2023/11/06 06:32:33;;;;;;;2.90;2.00;;;;;;;10.15;90.95;98989.00;5024350;28;20224;-83
2023/11/06 06:35:00;;;;;;;2.67;2.07;;;;;;;10.10;91.55;98983.22;5030290;28;20263;-83
2023/11/06 06:37:26;;;;;;;3.33;1.77;;;;;;;10.14;92.38;98995.28;5025943;28;20236;-84
2023/11/06 06:39:53;;;;;;;3.00;1.97;;;;;;;10.17;92.33;98996.84;5031566;28;20292;-82
2023/11/06 06:42:21;;;;;;;3.67;2.10;;;;;;;10.18;92.36;99002.03;5030350;28;20247;-82
2023/11/06 06:44:48;;;;;;;3.10;1.80;;;;;;;10.21;92.54;99007.09;5029423;28;20279;-82
2023/11/06 06:47:14;;;;;;;3.70;1.90;;;;;;;10.16;92.05;99013.78;5023087;28;20203;-82
2023/11/06 06:49:41;;;;;;;3.37;2.07;;;;;;;10.12;92.39;99018.53;5030830;28;20225;-82
2023/11/06 06:52:09;;;;;;;3.23;1.90;;;;;;;10.16;90.33;99030.59;5031274;28;20195;-82
2023/11/06 06:54:36;;;;;;;4.27;1.67;;;;;;;10.12;90.65;99033.63;5026662;28;20219;-82
2023/11/06 06:57:03;;;;;;;2.67;1.63;;;;;;;10.14;90.01;99043.19;5026438;28;20260;-82
2023/11/06 06:59:31;;;;;;;2.37;1.40;;;;;;;10.14;89.40;99037.00;5027274;28;20245;-83
2023/11/06 07:01:57;;;;;;;2.63;1.33;;;;;;;10.11;88.74;99038.13;5027208;28;20214;-82
2023/11/06 07:04:24;;;;;;;7.47;1.73;;;;;;;10.15;89.22;99050.19;5034012;28;20210;-83
2023/11/06 07:06:51;;;;;;;4.13;1.60;;;;;;;10.15;89.32;99055.50;5033604;28;20209;-82
2023/11/06 07:09:18;;;;;;;4.20;1.77;;;;;;;10.17;88.65;99053.56;5028033;28;20256;-83
2023/11/06 07:11:45;;;;;;;3.27;1.60;;;;;;;10.20;88.02;99060.47;5025884;28;20212;-82
2023/11/06 07:14:11;;;;;;;2.53;1.90;;;;;;;10.20;87.43;99063.13;5029663;28;20204;-82
2023/11/06 07:16:39;;;;;;;3.13;1.70;;;;;;;10.25;87.31;99068.88;5030589;28;20265;-83
2023/11/06 07:19:06;;;;;;;3.33;1.40;;;;;;;10.26;87.24;99063.41;5032813;28;20215;-83
2023/11/06 07:21:33;;;;;;;4.17;1.60;;;;;;;10.25;87.29;99068.88;5031894;28;20187;-82
2023/11/06 07:24:00;;;;;;;3.43;1.40;;;;;;;10.27;87.26;99077.56;5027210;28;20237;-83
2023/11/06 07:26:27;;;;;;;5.10;1.50;;;;;;;10.29;87.18;99073.78;5032383;28;20287;-82
2023/11/06 07:28:54;;;;;;;3.13;1.73;;;;;;;10.33;86.57;99085.03;5030751;28;20246;-83
2023/11/06 07:31:23;;;;;;;2.63;1.20;;;;;;;10.33;86.10;99077.88;5029081;28;20213;-82
2023/11/06 07:33:51;;;;;;;3.17;1.63;;;;;;;10.34;85.67;99086.72;5032074;28;20191;-82
2023/11/06 07:36:18;;;;;;;3.40;1.77;;;;;;;10.34;85.29;99078.72;5030015;28;20271;-81
2023/11/06 07:38:44;;;;;;;2.07;1.40;;;;;;;10.38;84.24;99098.78;5024404;28;20299;-82
2023/11/06 07:41:11;;;;;;;3.20;1.33;;;;;;;10.37;84.26;99095.28;5026221;28;20768;-82
2023/11/06 07:43:38;;;;;;;4.40;0.90;;;;;;;10.35;83.87;99102.53;5026312;28;20498;-82
2023/11/06 07:46:05;;;;;;;2.43;1.00;;;;;;;10.40;83.85;99100.31;5026652;28;20221;-82
2023/11/06 07:48:32;;;;;;;1.77;1.00;;;;;;;10.40;83.47;99107.44;5025748;28;20215;-82
2023/11/06 07:51:00;;;;;;;3.20;0.83;;;;;;;10.44;82.94;99106.22;5023813;28;20234;-82
2023/11/06 07:53:27;;;;;;;1.57;0.87;;;;;;;10.46;83.29;99119.38;5029125;28;20208;-82
2023/11/06 07:55:53;;;;;;;2.73;1.10;;;;;;;10.48;83.55;99114.78;5022892;28;20258;-82
2023/11/06 07:58:20;;;;;;;4.07;1.47;;;;;;;10.49;83.22;99127.09;5028263;28;20251;-82
2023/11/06 08:00:46;;;;;;;2.73;1.00;;;;;;;10.48;83.72;99122.75;5028146;28;20210;-82
2023/11/06 08:03:13;;;;;;;3.67;1.00;;;;;;;10.49;83.94;99111.13;5030251;28;20203;-82
2023/11/06 08:05:40;;;;;;;2.00;0.90;;;;;;;10.52;83.51;99132.16;5029246;28;20284;-83
2023/11/06 08:08:09;;;;;;;2.70;0.80;;;;;;;10.55;83.44;99130.09;5032612;28;20195;-83
2023/11/06 08:10:36;;;;;;;1.93;0.70;;;;;;;10.55;83.80;99134.56;5025213;28;20403;-82
2023/11/06 08:13:03;;;;;;;3.33;0.97;;;;;;;10.56;84.20;99141.56;5025366;28;20200;-83
2023/11/06 08:15:29;;;;;;;4.23;1.37;;;;;;;10.53;83.44;99150.66;5029719;28;20268;-83
2023/11/06 08:17:55;;;;;;;4.43;1.53;;;;;;;10.56;82.96;99141.56;5038943;28;20226;-82
2023/11/06 08:20:23;;;;;;;5.27;0.93;;;;;;;10.55;83.60;99139.91;5023201;28;20672;-83
2023/11/06 08:22:50;;;;;;;1.90;0.83;;;;;;;10.56;83.62;99139.75;5025509;28;20235;-82
2023/11/06 08:25:19;;;;;;;4.17;1.30;;;;;;;10.59;83.64;99154.59;5020270;28;20236;-82
2023/11/06 08:27:46;;;;;;;2.13;1.10;;;;;;;10.61;83.93;99148.16;5025189;28;20204;-82
2023/11/06 08:30:12;;;;;;;1.47;0.57;;;;;;;10.64;83.74;99158.56;5020491;28;20242;-82
2023/11/06 08:32:41;;;;;;;3.20;0.80;;;;;;;10.66;83.01;99158.41;5021919;28;20235;-82
2023/11/06 08:35:08;;;;;;;2.03;0.90;;;;;;;10.68;83.49;99175.09;5017822;28;20204;-83
2023/11/06 08:37:35;;;;;;;2.60;0.80;;;;;;;10.70;82.61;99170.50;5025504;28;20226;-83
2023/11/06 08:40:03;;;;;;;3.43;0.73;;;;;;;10.68;82.19;99172.44;5027202;28;20241;-83
2023/11/06 08:42:31;;;;;;;1.27;0.70;;;;;;;10.67;82.29;99173.41;5028586;28;20275;-82
2023/11/06 08:44:58;;;;;;;4.57;1.10;;;;;;;10.67;82.22;99171.59;5034819;28;20254;-83
2023/11/06 08:47:25;;;;;;;3.03;1.00;;;;;;;10.67;82.49;99174.25;5033223;28;20204;-82
2023/11/06 08:49:51;;;;;;;3.70;0.77;;;;;;;10.69;81.65;99172.31;5027209;28;20237;-83
2023/11/06 08:52:18;;;;;;;2.03;0.73;;;;;;;10.70;81.59;99167.84;5033067;28;20195;-82
2023/11/06 08:54:45;;;;;;;4.77;1.37;;;;;;;10.76;81.08;99177.94;5027704;28;20197;-83
2023/11/06 08:57:11;;;;;;;3.13;0.83;;;;;;;10.82;80.78;99190.72;5030759;28;20195;-82
2023/11/06 08:59:40;;;;;;;2.23;0.90;;;;;;;10.78;80.43;99182.16;5034449;28;20243;-83
2023/11/06 09:02:07;;;;;;;6.17;1.07;;;;;;;10.81;80.72;99178.38;5026473;28;20205;-83
2023/11/06 09:04:34;;;;;;;1.87;0.90;;;;;;;10.82;79.91;99187.22;5029040;28;20209;-82
2023/11/06 09:07:01;;;;;;;3.90;0.90;;;;;;;10.84;79.98;99191.44;5031949;28;20208;-82
2023/11/06 09:09:28;;;;;;;2.70;0.73;;;;;;;10.84;80.80;99199.41;5027055;28;20220;-83
2023/11/06 09:11:55;;;;;;;3.27;1.03;;;;;;;10.84;80.46;99201.25;5023310;28;20235;-83
2023/11/06 09:14:22;;;;;;;2.47;0.93;;;;;;;10.90;80.45;99198.91;5028816;28;20263;-83
2023/11/06 09:16:50;;;;;;;2.27;1.20;;;;;;;10.88;80.88;99206.19;5027413;28;20205;-83
2023/11/06 09:19:17;;;;;;;3.90;1.20;;;;;;;10.91;80.35;99208.56;5031812;28;20227;-83
2023/11/06 09:21:44;;;;;;;4.27;1.70;;;;;;;10.94;80.18;99220.75;5035575;28;20257;-83
2023/11/06 09:24:11;;;;;;;2.43;0.93;;;;;;;10.97;79.56;99218.66;5030629;28;20214;-82
2023/11/06 09:26:37;;;;;;;4.37;1.27;;;;;;;11.00;79.49;99228.22;5027368;28;20212;-81
2023/11/06 09:29:06;;;;;;;3.47;1.27;;;;;;;11.02;79.41;99236.94;5035467;28;20281;-82
2023/11/06 09:31:32;;;;;;;2.60;0.90;;;;;;;11.02;79.25;99234.25;5021744;28;20233;-82
2023/11/06 09:34:00;;;;;;;5.80;1.63;;;;;;;11.03;79.18;99242.13;5020388;28;20208;-82
2023/11/06 09:36:26;;;;;;;6.40;1.30;;;;;;;11.04;79.13;99235.81;5022170;28;20195;-82
2023/11/06 09:38:53;;;;;;;5.93;1.23;;;;;;;11.06;79.27;99241.84;5023346;28;20228;-82
2023/11/06 09:41:20;;;;;;;6.87;1.20;;;;;;;11.10;78.83;99256.59;5030706;28;20210;-81
2023/11/06 09:43:47;;;;;;;4.70;1.57;;;;;;;11.13;79.29;99258.13;5023792;28;20609;-82
2023/11/06 09:46:13;;;;;;;2.20;1.10;;;;;;;11.22;78.87;99256.50;5021919;28;20210;-82
2023/11/06 09:48:41;;;;;;;4.30;1.30;;;;;;;11.26;78.74;99265.91;5019043;28;20240;-82
2023/11/06 09:51:11;;;;;;;3.00;1.67;;;;;;;11.28;78.47;99272.81;5023435;28;20239;-82
2023/11/06 09:53:39;;;;;;;7.47;1.80;;;;;;;11.35;78.03;99286.41;5027405;28;20207;-82
2023/11/06 09:56:08;;;;;;;7.10;3.20;;;;;;;11.42;77.26;99282.22;5020826;28;20211;-82
2023/11/06 09:58:36;;;;;;;8.80;2.53;;;;;;;11.43;77.17;99287.44;5021053;28;20240;-82
2023/11/06 10:01:04;;;;;;;7.93;2.20;;;;;;;11.46;77.20;99289.00;5023583;28;20235;-83
2023/11/06 10:03:30;;;;;;;6.40;2.17;;;;;;;11.50;77.64;99277.06;5026052;28;20210;-82
2023/11/06 10:05:58;;;;;;;8.33;2.03;;;;;;;11.58;77.25;99285.22;5026752;28;20218;-82
2023/11/06 10:08:31;;;;;;;4.70;1.40;;;;;;;11.64;76.96;99273.19;5019360;28;20210;-82
2023/11/06 10:10:59;;;;;;;3.40;1.70;;;;;;;11.70;75.50;99277.94;5024405;28;20232;-83
2023/11/06 10:13:26;;;;;;;6.13;1.60;;;;;;;11.78;75.43;99276.31;5021163;28;20212;-83
2023/11/06 10:15:52;;;;;;;6.60;1.50;;;;;;;11.82;74.70;99269.69;5026276;28;20210;-83
2023/11/06 10:18:20;;;;;;;4.03;1.37;;;;;;;11.84;75.08;99274.91;5019284;28;20254;-83
2023/11/06 10:20:48;;;;;;;3.97;1.70;;;;;;;11.91;74.86;99286.72;5023358;28;20207;-82
2023/11/06 10:23:23;;;;;;;11.20;2.83;;;;;;;11.97;74.29;99288.00;5025882;28;20217;-82
2023/11/06 10:25:51;;;;;;;4.87;1.73;;;;;;;12.00;73.93;99288.53;5029375;28;20243;-84
2023/11/06 10:28:18;;;;;;;4.37;1.40;;;;;;;12.02;73.35;99291.06;5026574;28;20218;-84
2023/11/06 10:30:47;;;;;;;4.13;2.10;;;;;;;12.08;73.55;99298.53;5031160;28;20272;-84
2023/11/06 10:33:14;;;;;;;5.63;1.80;;;;;;;12.11;73.07;99299.09;5028573;28;20244;-83
2023/11/06 10:35:41;;;;;;;4.77;1.53;;;;;;;12.12;72.31;99294.59;5031341;28;20234;-83
2023/11/06 10:38:07;;;;;;;4.57;1.60;;;;;;;12.10;71.06;99288.56;5029618;28;20197;-83
2023/11/06 10:40:34;;;;;;;6.07;1.90;;;;;;;12.08;71.08;99301.19;5028663;28;20230;-83
2023/11/06 10:43:03;;;;;;;5.77;1.53;;;;;;;12.06;71.42;99309.34;5027812;28;20213;-83
2023/11/06 10:45:33;;;;;;;6.53;1.50;;;;;;;12.06;72.08;99308.50;5025409;28;20202;-84
2023/11/06 10:48:10;;;;;;;5.73;1.47;;;;;;;12.07;72.15;99313.69;5022871;28;20230;-83
2023/11/06 10:50:38;;;;;;;6.53;1.50;;;;;;;12.00;72.12;99315.22;5025456;28;20235;-84
2023/11/06 10:53:07;;;;;;;4.83;1.97;;;;;;;12.03;72.20;99312.28;5025831;28;20212;-84
2023/11/06 10:55:35;;;;;;;9.17;1.80;;;;;;;11.99;71.69;99310.91;5029481;28;20260;-84
2023/11/06 10:58:04;;;;;;;4.33;1.70;;;;;;;11.97;72.17;99304.84;5029898;28;20208;-84
2023/11/06 11:00:31;;;;;;;5.83;1.37;;;;;;;11.95;72.44;99308.63;5026629;28;20276;-84
2023/11/06 11:02:58;;;;;;;4.83;1.43;;;;;;;11.90;72.33;99302.88;5029221;28;20199;-84
2023/11/06 11:05:28;;;;;;;4.27;1.27;;;;;;;11.91;72.31;99310.72;5028544;28;20209;-83
2023/11/06 11:07:56;;;;;;;5.50;1.80;;;;;;;11.91;72.42;99308.06;5023161;28;20194;-83
2023/11/06 11:10:26;;;;;;;2.63;1.50;;;;;;;11.91;72.29;99310.72;5022371;28;20248;-82
2023/11/06 11:12:56;;;;;;;5.77;1.30;;;;;;;11.91;73.18;99299.22;5019426;28;20284;-83
2023/11/06 11:15:29;;;;;;;5.93;1.87;;;;;;;11.92;72.44;99303.56;5023769;28;20213;-83
2023/11/06 11:17:58;;;;;;;8.60;3.00;;;;;;;11.93;71.69;99303.44;5019317;28;20205;-83
2023/11/06 11:20:24;;;;;;;9.10;3.43;;;;;;;11.95;71.75;99301.47;5021530;28;20248;-82
2023/11/06 11:23:06;;;;;;;7.77;3.07;;;;;;;11.97;71.35;99309.34;5023479;28;20210;-82
2023/11/06 11:25:54;;;;;;;7.33;1.87;;;;;;;12.01;69.92;99308.91;5022392;28;20711;-84
2023/11/06 11:28:21;;;;;;;5.53;2.67;;;;;;;12.06;70.07;99303.16;5025618;28;20232;-82
2023/11/06 11:30:50;;;;;;;10.63;3.93;;;;;;;12.10;69.31;99320.59;5026924;28;20223;-83
2023/11/06 11:33:52;;;;;;;7.83;3.67;;;;;;;12.11;68.98;99327.59;5022714;28;20220;-82
2023/11/06 11:36:27;;;;;;;10.27;3.17;;;;;;;12.15;69.84;99323.69;5023517;28;20260;-83